createdAt,value
2022-12-29T00:02:15.576Z,1.00
2022-12-29T00:04:42.152Z,0.93
2022-12-29T00:07:08.923Z,0.90
2022-12-29T00:09:36.270Z,1.17
2022-12-29T00:12:04.889Z,0.93
2022-12-29T00:14:50.938Z,1.00
2022-12-29T00:17:17.484Z,1.00
2022-12-29T00:20:03.305Z,0.70
2022-12-29T00:22:48.277Z,0.88
2022-12-29T00:25:33.659Z,0.70
2022-12-29T00:28:19.222Z,1.10
2022-12-29T00:31:04.262Z,1.10
2022-12-29T00:33:51.488Z,0.90
2022-12-29T00:36:37.694Z,0.93
2022-12-29T00:39:31.572Z,0.85
2022-12-29T00:42:23.186Z,0.80
2022-12-29T00:44:49.641Z,0.63
2022-12-29T00:47:16.151Z,1.00
2022-12-29T00:49:45.085Z,0.90
2022-12-29T00:52:13.409Z,0.90
2022-12-29T00:54:42.000Z,1.00
2022-12-29T00:57:10.442Z,0.82
2022-12-29T00:59:38.288Z,1.02
2022-12-29T01:02:05.098Z,0.90
2022-12-29T01:04:32.071Z,0.90
2022-12-29T01:06:59.611Z,0.90
2022-12-29T01:09:45.224Z,0.88
2022-12-29T01:12:12.620Z,1.02
2022-12-29T01:14:39.675Z,0.93
2022-12-29T01:17:06.409Z,0.70
2022-12-29T01:19:33.466Z,0.80
2022-12-29T01:22:01.078Z,0.70
2022-12-29T01:24:28.495Z,1.00
2022-12-29T01:26:55.665Z,0.88
2022-12-29T01:29:22.737Z,0.75
2022-12-29T01:31:50.658Z,0.90
2022-12-29T01:34:18.049Z,0.80
2022-12-29T01:36:44.938Z,0.80
2022-12-29T01:39:12.824Z,1.00
2022-12-29T01:41:39.439Z,0.77
2022-12-29T01:44:47.658Z,0.80
2022-12-29T01:47:25.181Z,0.82
2022-12-29T01:49:55.260Z,0.63
2022-12-29T01:52:25.328Z,1.10
2022-12-29T01:54:56.283Z,0.73
2022-12-29T01:57:29.081Z,1.00
2022-12-29T02:00:09.487Z,0.90
2022-12-29T02:02:47.280Z,0.63
2022-12-29T02:05:33.959Z,1.08
2022-12-29T02:08:02.211Z,1.00
2022-12-29T02:10:32.393Z,0.70
2022-12-29T02:12:59.243Z,0.70
2022-12-29T02:15:46.562Z,0.88
2022-12-29T02:18:24.656Z,1.05
2022-12-29T02:20:51.111Z,1.08
2022-12-29T02:23:38.064Z,0.90
2022-12-29T02:26:25.141Z,0.80
2022-12-29T02:29:00.860Z,0.90
2022-12-29T02:31:42.684Z,0.80
2022-12-29T02:34:34.117Z,0.95
2022-12-29T02:37:10.773Z,1.00
2022-12-29T02:40:00.967Z,1.02
2022-12-29T02:43:05.174Z,0.80
2022-12-29T02:45:52.837Z,1.15
2022-12-29T02:48:30.175Z,1.30
2022-12-29T02:51:11.781Z,0.88
2022-12-29T02:53:57.059Z,1.35
2022-12-29T02:56:23.643Z,1.17
2022-12-29T02:58:50.306Z,1.30
2022-12-29T03:02:18.331Z,1.67
2022-12-29T03:05:15.376Z,1.42
2022-12-29T03:08:00.899Z,1.55
2022-12-29T03:10:27.332Z,1.65
2022-12-29T03:13:50.622Z,1.90
2022-12-29T03:16:30.798Z,1.80
2022-12-29T03:19:21.252Z,1.90
2022-12-29T03:22:28.755Z,1.80
2022-12-29T03:25:26.925Z,1.45
2022-12-29T03:28:02.371Z,1.60
2022-12-29T03:30:34.499Z,1.75
2022-12-29T03:33:10.507Z,1.95
2022-12-29T03:35:42.187Z,1.90
2022-12-29T03:38:26.894Z,1.85
2022-12-29T03:40:58.027Z,1.73
2022-12-29T03:43:28.007Z,1.45
2022-12-29T03:45:55.225Z,1.38
2022-12-29T03:48:22.677Z,1.17
2022-12-29T03:50:51.054Z,1.25
2022-12-29T03:53:18.391Z,1.15
2022-12-29T03:55:45.427Z,1.13
2022-12-29T03:58:13.065Z,1.20
2022-12-29T04:00:55.829Z,1.20
2022-12-29T04:03:22.922Z,1.10
2022-12-29T04:05:50.401Z,1.17
2022-12-29T04:08:17.024Z,0.80
2022-12-29T04:10:43.835Z,1.08
2022-12-29T04:13:10.331Z,0.90
2022-12-29T04:15:37.341Z,0.85
2022-12-29T04:18:04.079Z,1.13
2022-12-29T04:20:49.337Z,0.80
2022-12-29T04:23:16.512Z,1.10
2022-12-29T04:25:48.535Z,1.00
2022-12-29T04:28:17.274Z,1.17
2022-12-29T04:30:57.197Z,1.05
2022-12-29T04:33:36.111Z,0.82
2022-12-29T04:36:03.559Z,0.85
2022-12-29T04:38:30.250Z,1.00
2022-12-29T04:41:00.555Z,0.85
2022-12-29T04:43:27.711Z,0.77
2022-12-29T04:46:13.885Z,0.70
2022-12-29T04:48:57.522Z,0.68
2022-12-29T04:51:41.140Z,0.75
2022-12-29T04:54:09.615Z,0.50
2022-12-29T04:56:37.290Z,0.70
2022-12-29T04:59:03.958Z,0.60
2022-12-29T05:01:30.635Z,0.55
2022-12-29T05:03:58.201Z,0.68
2022-12-29T05:06:25.289Z,0.80
2022-12-29T05:08:51.797Z,0.80
2022-12-29T05:11:18.455Z,0.75
2022-12-29T05:13:47.525Z,0.60
2022-12-29T05:16:15.497Z,0.60
2022-12-29T05:18:42.547Z,0.50
2022-12-29T05:21:09.272Z,0.68
2022-12-29T05:23:35.719Z,0.80
2022-12-29T05:26:05.949Z,0.90
2022-12-29T05:28:52.702Z,0.77
2022-12-29T05:31:19.862Z,0.60
2022-12-29T05:33:47.895Z,0.50
2022-12-29T05:36:14.694Z,0.50
2022-12-29T05:38:46.229Z,0.75
2022-12-29T05:41:13.322Z,0.50
2022-12-29T05:43:58.023Z,0.60
2022-12-29T05:46:42.965Z,0.60
2022-12-29T05:49:32.295Z,0.68
2022-12-29T05:52:06.114Z,0.40
2022-12-29T05:54:33.840Z,0.45
2022-12-29T05:57:01.627Z,0.43
2022-12-29T05:59:28.950Z,0.50
2022-12-29T06:01:55.811Z,0.63
2022-12-29T06:04:22.792Z,0.50
2022-12-29T06:06:49.585Z,0.40
2022-12-29T06:09:24.756Z,0.30
2022-12-29T06:11:53.744Z,0.40
2022-12-29T06:14:20.514Z,0.50
2022-12-29T06:16:47.805Z,0.45
2022-12-29T06:19:14.564Z,0.60
2022-12-29T06:21:41.323Z,0.68
2022-12-29T06:24:11.888Z,0.55
2022-12-29T06:26:38.518Z,0.90
2022-12-29T06:29:05.118Z,0.52
2022-12-29T06:31:32.345Z,0.50
2022-12-29T06:34:00.365Z,0.50
2022-12-29T06:36:30.234Z,0.52
2022-12-29T06:38:56.878Z,0.50
2022-12-29T06:41:26.984Z,0.60
2022-12-29T06:44:23.158Z,0.43
2022-12-29T06:46:51.668Z,0.63
2022-12-29T06:49:18.365Z,0.60
2022-12-29T06:51:46.446Z,0.50
2022-12-29T06:54:12.987Z,0.57
2022-12-29T06:56:39.462Z,0.40
2022-12-29T06:59:06.128Z,0.30
2022-12-29T07:01:32.926Z,0.60
2022-12-29T07:03:59.641Z,0.68
2022-12-29T07:06:26.105Z,0.60
2022-12-29T07:08:56.056Z,0.40
2022-12-29T07:11:22.563Z,0.40
2022-12-29T07:13:49.252Z,0.40
2022-12-29T07:16:15.837Z,0.40
2022-12-29T07:18:43.935Z,0.30
2022-12-29T07:21:11.243Z,0.50
2022-12-29T07:23:37.815Z,0.50
2022-12-29T07:26:06.711Z,0.40
2022-12-29T07:28:34.968Z,0.50
2022-12-29T07:31:01.571Z,0.68
2022-12-29T07:33:32.107Z,0.40
2022-12-29T07:35:59.442Z,0.40
2022-12-29T07:38:26.167Z,0.70
2022-12-29T07:40:56.966Z,0.60
2022-12-29T07:43:23.480Z,0.52
2022-12-29T07:46:17.459Z,0.50
2022-12-29T07:48:57.486Z,0.40
2022-12-29T07:51:24.017Z,0.40
2022-12-29T07:53:50.526Z,0.38
2022-12-29T07:56:16.990Z,0.20
2022-12-29T07:58:43.712Z,0.40
2022-12-29T08:01:10.305Z,0.30
2022-12-29T08:03:37.556Z,0.20
2022-12-29T08:06:04.449Z,0.30
2022-12-29T08:08:31.030Z,0.40
2022-12-29T08:10:57.599Z,0.63
2022-12-29T08:13:24.518Z,0.50
2022-12-29T08:15:51.058Z,0.60
2022-12-29T08:18:17.542Z,0.70
2022-12-29T08:20:44.050Z,0.55
2022-12-29T08:23:11.161Z,0.63
2022-12-29T08:25:37.665Z,0.43
2022-12-29T08:28:04.407Z,0.65
2022-12-29T08:30:30.956Z,0.70
2022-12-29T08:32:57.529Z,0.40
2022-12-29T08:35:24.148Z,0.57
2022-12-29T08:37:50.646Z,0.50
2022-12-29T08:40:17.514Z,0.50
2022-12-29T08:42:44.956Z,0.40
2022-12-29T08:45:12.061Z,0.35
2022-12-29T08:47:39.544Z,0.60
2022-12-29T08:50:06.750Z,0.73
2022-12-29T08:52:33.273Z,0.57
2022-12-29T08:54:59.733Z,0.60
2022-12-29T08:57:26.309Z,0.60
2022-12-29T09:00:05.503Z,0.90
2022-12-29T09:02:32.560Z,0.60
2022-12-29T09:05:00.043Z,0.60
2022-12-29T09:07:26.845Z,0.30
2022-12-29T09:09:53.350Z,0.40
2022-12-29T09:12:20.038Z,0.40
2022-12-29T09:14:49.342Z,0.30
2022-12-29T09:17:34.334Z,0.20
2022-12-29T09:20:00.799Z,0.40
2022-12-29T09:22:27.383Z,0.47
2022-12-29T09:24:53.945Z,0.38
2022-12-29T09:27:20.503Z,0.30
2022-12-29T09:29:47.031Z,0.30
2022-12-29T09:32:18.335Z,0.68
2022-12-29T09:34:45.513Z,0.50
2022-12-29T09:37:12.307Z,0.30
2022-12-29T09:39:39.241Z,0.52
2022-12-29T09:42:14.420Z,0.50
2022-12-29T09:44:49.136Z,0.30
2022-12-29T09:47:19.319Z,0.60
2022-12-29T09:49:51.139Z,0.30
2022-12-29T09:52:26.707Z,0.40
2022-12-29T09:55:24.233Z,0.60
2022-12-29T09:57:57.291Z,0.60
2022-12-29T10:00:37.118Z,0.40
2022-12-29T10:03:48.941Z,0.50
2022-12-29T10:06:22.341Z,0.38
2022-12-29T10:08:53.231Z,0.43
2022-12-29T10:11:54.921Z,0.40
2022-12-29T10:14:33.800Z,0.47
2022-12-29T10:17:25.988Z,0.65
2022-12-29T10:20:27.938Z,0.50
2022-12-29T10:23:03.296Z,0.60
2022-12-29T10:25:36.022Z,0.60
2022-12-29T10:28:10.527Z,0.55
2022-12-29T10:30:38.064Z,0.43
2022-12-29T10:33:11.084Z,0.30
2022-12-29T10:35:41.444Z,0.50
2022-12-29T10:38:23.513Z,0.50
2022-12-29T10:40:57.827Z,0.60
2022-12-29T10:43:30.157Z,0.50
2022-12-29T10:46:07.933Z,0.40
2022-12-29T10:48:36.414Z,0.43
2022-12-29T10:51:06.560Z,0.38
2022-12-29T10:53:45.558Z,0.50
2022-12-29T10:56:30.465Z,0.30
2022-12-29T10:59:02.529Z,0.30
2022-12-29T11:01:36.375Z,0.30
2022-12-29T11:04:29.331Z,0.30
2022-12-29T11:06:57.368Z,0.30
2022-12-29T11:09:47.172Z,0.22
2022-12-29T11:12:24.214Z,0.20
2022-12-29T11:15:08.652Z,0.50
2022-12-29T11:17:50.804Z,0.10
2022-12-29T11:20:36.469Z,0.38
2022-12-29T11:23:04.387Z,0.30
2022-12-29T11:25:30.930Z,0.10
2022-12-29T11:27:59.393Z,0.40
2022-12-29T11:30:31.070Z,0.30
2022-12-29T11:32:58.643Z,0.30
2022-12-29T11:35:41.999Z,0.40
2022-12-29T11:38:22.013Z,0.50
2022-12-29T11:40:49.415Z,0.45
2022-12-29T11:43:25.118Z,0.40
2022-12-29T11:45:53.699Z,0.50
2022-12-29T11:48:22.054Z,0.57
2022-12-29T11:50:55.544Z,0.40
2022-12-29T11:53:26.034Z,0.50
2022-12-29T11:56:12.042Z,0.43
2022-12-29T11:58:39.760Z,0.35
2022-12-29T12:01:23.021Z,0.30
2022-12-29T12:04:02.225Z,0.30
2022-12-29T12:06:33.562Z,0.28
2022-12-29T12:09:26.121Z,0.45
2022-12-29T12:11:54.916Z,0.40
2022-12-29T12:14:28.668Z,0.20
2022-12-29T12:17:19.583Z,0.47
2022-12-29T12:19:49.256Z,0.30
2022-12-29T12:22:24.756Z,0.47
2022-12-29T12:25:07.339Z,0.40
2022-12-29T12:27:42.944Z,0.38
2022-12-29T12:30:17.819Z,0.50
2022-12-29T12:32:53.490Z,0.40
2022-12-29T12:35:54.685Z,0.45
2022-12-29T12:38:33.114Z,0.30
2022-12-29T12:41:44.667Z,0.40
2022-12-29T12:44:29.577Z,0.40
2022-12-29T12:47:28.640Z,0.43
2022-12-29T12:50:19.737Z,0.40
2022-12-29T12:52:58.524Z,0.40
2022-12-29T12:55:40.462Z,0.22
2022-12-29T12:58:48.843Z,0.50
2022-12-29T13:01:15.419Z,0.50
2022-12-29T13:03:55.321Z,0.50
2022-12-29T13:06:28.136Z,0.40
2022-12-29T13:09:26.969Z,0.70
2022-12-29T13:12:27.016Z,0.55
2022-12-29T13:15:39.448Z,0.50
2022-12-29T13:18:22.024Z,0.25
2022-12-29T13:20:59.432Z,0.50
2022-12-29T13:23:38.321Z,0.52
2022-12-29T13:26:15.859Z,0.50
2022-12-29T13:29:11.360Z,0.50
2022-12-29T13:31:43.401Z,0.63
2022-12-29T13:34:40.740Z,0.50
2022-12-29T13:37:14.899Z,0.50
2022-12-29T13:39:51.025Z,0.50
2022-12-29T13:42:20.366Z,0.57
2022-12-29T13:44:55.913Z,0.50
2022-12-29T13:47:33.432Z,0.47
2022-12-29T13:50:04.097Z,0.43
2022-12-29T13:52:39.581Z,0.50
2022-12-29T13:55:18.315Z,0.65
2022-12-29T13:58:19.065Z,0.40
2022-12-29T14:01:07.458Z,0.65
2022-12-29T14:03:55.845Z,0.45
2022-12-29T14:06:27.584Z,0.50
2022-12-29T14:09:03.847Z,0.50
2022-12-29T14:11:34.797Z,0.55
2022-12-29T14:14:38.537Z,0.50
2022-12-29T14:17:15.109Z,0.70
2022-12-29T14:19:45.017Z,0.80
2022-12-29T14:22:12.817Z,0.70
2022-12-29T14:24:47.320Z,0.70
2022-12-29T14:27:13.935Z,0.60
2022-12-29T14:29:40.342Z,0.60
2022-12-29T14:32:22.504Z,0.50
2022-12-29T14:34:52.422Z,0.60
2022-12-29T14:37:29.536Z,0.63
2022-12-29T14:40:19.014Z,0.90
2022-12-29T14:42:50.625Z,0.70
2022-12-29T14:45:17.657Z,0.68
2022-12-29T14:47:54.649Z,0.70
2022-12-29T14:50:25.685Z,0.70
2022-12-29T14:53:03.725Z,0.70
2022-12-29T14:55:41.687Z,0.80
2022-12-29T14:58:21.966Z,0.80
2022-12-29T15:00:49.467Z,0.90
2022-12-29T15:03:44.287Z,0.75
2022-12-29T15:06:14.201Z,0.80
2022-12-29T15:08:52.735Z,1.05
2022-12-29T15:11:42.779Z,0.80
2022-12-29T15:14:31.861Z,1.05
2022-12-29T15:16:58.964Z,0.70
2022-12-29T15:19:28.135Z,0.95
2022-12-29T15:21:56.554Z,0.77
2022-12-29T15:24:24.406Z,0.77
2022-12-29T15:26:53.819Z,0.95
2022-12-29T15:29:40.827Z,0.75
2022-12-29T15:32:19.306Z,0.90
2022-12-29T15:34:49.528Z,1.42
2022-12-29T15:37:28.208Z,1.20
2022-12-29T15:39:57.108Z,0.82
2022-12-29T15:42:46.779Z,1.10
2022-12-29T15:45:15.389Z,1.05
2022-12-29T15:47:45.191Z,2.38
2022-12-29T15:50:28.392Z,0.95
2022-12-29T15:52:56.802Z,1.33
2022-12-29T15:55:32.697Z,1.23
2022-12-29T15:58:01.122Z,1.10
2022-12-29T16:00:32.146Z,1.00
2022-12-29T16:03:01.021Z,1.20
2022-12-29T16:05:39.600Z,0.98
2022-12-29T16:08:28.196Z,1.00
2022-12-29T16:10:57.236Z,1.33
2022-12-29T16:13:39.799Z,0.90
2022-12-29T16:16:18.880Z,1.30
2022-12-29T16:18:45.757Z,0.82
2022-12-29T16:21:20.324Z,1.20
2022-12-29T16:23:51.783Z,1.23
2022-12-29T16:26:21.175Z,1.10
2022-12-29T16:28:51.423Z,1.00
2022-12-29T16:31:23.929Z,1.92
2022-12-29T16:33:53.602Z,1.05
2022-12-29T16:36:33.536Z,1.00
2022-12-29T16:39:24.535Z,0.85
2022-12-29T16:41:51.794Z,0.50
2022-12-29T16:44:21.371Z,0.80
2022-12-29T16:47:12.230Z,0.82
2022-12-29T16:49:42.772Z,1.05
2022-12-29T16:52:21.143Z,1.30
2022-12-29T16:54:53.248Z,1.08
2022-12-29T16:57:25.663Z,0.88
2022-12-29T16:59:57.267Z,0.93
2022-12-29T17:02:26.916Z,0.90
2022-12-29T17:04:53.878Z,0.77
2022-12-29T17:07:23.808Z,1.15
2022-12-29T17:09:51.367Z,0.85
2022-12-29T17:12:25.544Z,1.30
2022-12-29T17:15:01.261Z,1.17
2022-12-29T17:17:39.660Z,0.98
2022-12-29T17:20:15.537Z,1.20
2022-12-29T17:22:42.602Z,0.88
2022-12-29T17:25:13.854Z,0.60
2022-12-29T17:27:47.752Z,1.17
2022-12-29T17:30:20.483Z,0.90
2022-12-29T17:32:51.631Z,0.80
2022-12-29T17:35:22.973Z,0.75
2022-12-29T17:37:50.193Z,0.70
2022-12-29T17:40:22.217Z,0.82
2022-12-29T17:42:50.630Z,0.95
2022-12-29T17:45:20.219Z,1.55
2022-12-29T17:47:47.514Z,0.90
2022-12-29T17:50:21.863Z,1.20
2022-12-29T17:52:53.221Z,1.30
2022-12-29T17:55:22.030Z,1.00
2022-12-29T17:57:49.029Z,1.00
2022-12-29T18:00:17.523Z,1.23
2022-12-29T18:02:44.424Z,1.08
2022-12-29T18:05:24.272Z,0.75
2022-12-29T18:07:55.844Z,1.08
2022-12-29T18:10:25.840Z,0.85
2022-12-29T18:12:55.703Z,0.88
2022-12-29T18:15:28.077Z,1.00
2022-12-29T18:18:14.934Z,1.25
2022-12-29T18:20:43.632Z,1.00
2022-12-29T18:23:25.066Z,1.02
2022-12-29T18:25:59.909Z,0.90
2022-12-29T18:28:27.710Z,0.90
2022-12-29T18:30:56.957Z,1.00
2022-12-29T18:33:26.456Z,0.60
2022-12-29T18:36:03.631Z,0.93
2022-12-29T18:39:03.120Z,1.10
2022-12-29T18:41:30.369Z,1.17
2022-12-29T18:43:58.013Z,0.90
2022-12-29T18:46:24.609Z,0.80
2022-12-29T18:48:52.358Z,1.05
2022-12-29T18:51:22.163Z,0.80
2022-12-29T18:53:49.025Z,0.93
2022-12-29T18:56:15.722Z,1.00
2022-12-29T18:58:42.605Z,1.00
2022-12-29T19:01:27.809Z,1.20
2022-12-29T19:03:55.262Z,1.27
2022-12-29T19:06:22.361Z,1.00
2022-12-29T19:08:49.000Z,1.38
2022-12-29T19:11:15.664Z,1.40
2022-12-29T19:13:42.197Z,1.20
2022-12-29T19:16:18.674Z,1.00
2022-12-29T19:18:49.032Z,0.75
2022-12-29T19:21:25.033Z,0.90
2022-12-29T19:23:51.953Z,0.77
2022-12-29T19:26:31.099Z,0.80
2022-12-29T19:28:58.626Z,0.47
2022-12-29T19:31:25.370Z,0.80
2022-12-29T19:33:53.475Z,0.80
2022-12-29T19:36:20.900Z,0.50
2022-12-29T19:38:47.877Z,0.60
2022-12-29T19:41:15.407Z,0.55
2022-12-29T19:43:42.121Z,0.77
2022-12-29T19:46:16.360Z,1.02
2022-12-29T19:48:43.001Z,1.13
2022-12-29T19:51:12.397Z,0.85
2022-12-29T19:53:39.321Z,0.60
2022-12-29T19:56:08.249Z,0.57
2022-12-29T19:58:36.589Z,0.60
2022-12-29T20:01:13.441Z,0.77
2022-12-29T20:03:40.442Z,0.70
2022-12-29T20:06:09.137Z,0.65
2022-12-29T20:08:37.187Z,0.80
2022-12-29T20:11:09.588Z,0.82
2022-12-29T20:13:36.669Z,0.60
2022-12-29T20:16:11.015Z,0.75
2022-12-29T20:18:38.580Z,1.10
2022-12-29T20:21:08.323Z,1.10
2022-12-29T20:23:37.411Z,0.90
2022-12-29T20:26:04.590Z,0.77
2022-12-29T20:28:31.387Z,0.77
2022-12-29T20:31:05.055Z,0.70
2022-12-29T20:33:32.544Z,0.70
2022-12-29T20:36:17.379Z,1.20
2022-12-29T20:38:45.739Z,0.80
2022-12-29T20:41:13.922Z,1.48
2022-12-29T20:43:41.599Z,0.80
2022-12-29T20:46:09.121Z,0.73
2022-12-29T20:48:35.822Z,0.40
2022-12-29T20:51:02.919Z,0.52
2022-12-29T20:53:35.059Z,0.80
2022-12-29T20:56:07.751Z,0.73
2022-12-29T20:58:47.207Z,0.68
2022-12-29T21:01:24.485Z,0.93
2022-12-29T21:03:51.645Z,0.52
2022-12-29T21:06:21.596Z,0.40
2022-12-29T21:08:52.542Z,0.70
2022-12-29T21:11:21.425Z,0.70
2022-12-29T21:13:48.579Z,0.60
2022-12-29T21:16:15.632Z,0.77
2022-12-29T21:18:42.296Z,0.77
2022-12-29T21:21:15.977Z,0.80
2022-12-29T21:23:42.749Z,0.85
2022-12-29T21:26:11.095Z,0.65
2022-12-29T21:28:39.516Z,0.65
2022-12-29T21:31:23.225Z,1.05
2022-12-29T21:33:50.163Z,0.73
2022-12-29T21:36:16.755Z,0.75
2022-12-29T21:38:43.500Z,0.60
2022-12-29T21:41:13.169Z,0.63
2022-12-29T21:43:39.895Z,0.70
2022-12-29T21:46:07.416Z,1.00
2022-12-29T21:48:34.409Z,0.75
2022-12-29T21:51:32.039Z,0.70
2022-12-29T21:54:20.788Z,0.65
2022-12-29T21:56:48.363Z,0.65
2022-12-29T21:59:35.170Z,0.70
2022-12-29T22:02:22.534Z,1.00
2022-12-29T22:05:08.522Z,0.40
2022-12-29T22:07:54.191Z,0.63
2022-12-29T22:10:39.444Z,0.75
2022-12-29T22:13:05.990Z,0.45
2022-12-29T22:15:36.537Z,0.75
2022-12-29T22:18:04.673Z,0.50
2022-12-29T22:20:34.042Z,0.95
2022-12-29T22:23:02.170Z,0.68
2022-12-29T22:25:31.898Z,0.50
2022-12-29T22:27:59.894Z,0.80
2022-12-29T22:30:28.116Z,0.55
2022-12-29T22:32:54.644Z,0.90
2022-12-29T22:35:22.209Z,0.80
2022-12-29T22:37:48.714Z,0.93
2022-12-29T22:40:15.274Z,1.08
2022-12-29T22:42:41.803Z,1.05
2022-12-29T22:45:08.985Z,1.40
2022-12-29T22:47:35.541Z,1.17
2022-12-29T22:50:02.278Z,1.27
2022-12-29T22:52:29.207Z,1.58
2022-12-29T22:54:57.387Z,1.60
2022-12-29T22:57:25.788Z,1.50
2022-12-29T22:59:52.265Z,1.50
2022-12-29T23:02:18.895Z,1.65
2022-12-29T23:07:34.632Z,1.25
2022-12-29T23:10:01.471Z,1.88
2022-12-29T23:12:31.741Z,1.60
2022-12-29T23:14:58.566Z,1.77
2022-12-29T23:17:25.417Z,1.67
2022-12-29T23:19:53.666Z,1.70
2022-12-29T23:22:20.574Z,1.60
2022-12-29T23:24:47.122Z,1.20
2022-12-29T23:27:13.923Z,1.75
2022-12-29T23:29:40.491Z,1.70
2022-12-29T23:32:07.060Z,1.60
2022-12-29T23:34:33.565Z,1.73
2022-12-29T23:37:00.039Z,1.75
2022-12-29T23:39:26.555Z,1.70
2022-12-29T23:41:53.186Z,1.60
2022-12-29T23:44:20.075Z,1.83
2022-12-29T23:46:46.629Z,1.90
2022-12-29T23:49:13.209Z,1.70
2022-12-29T23:51:39.746Z,1.85
2022-12-29T23:54:06.298Z,1.70
2022-12-29T23:56:33.450Z,1.90
2022-12-29T23:59:00.093Z,1.75
